Detall de PIREP

Printer-friendly versionPDF version

[2011/05/16 08:33:00]
Flight IATA:CT0001
Pilot Number:041
Company ICAO:CAT
Aircraft Type:DC3/A
PAX:17
Departing Airport: LEDA
Destination Airport: LEIB
Alternate Airport:LEPA
Online: VATSIM
Route:REBUL G23 BCN W74 CORDA
Flight Level:F120
No Slew and time accel
No pause
Crash detect
Detect pilot in Cockpit between each 30 and 45 minutes
08:33 Zero fuel Weight: 20811 Lbs, Fuel Weight: 4817 Lbs
08:33 VATSIM:LEDA 160800Z 28001KT CAVOK 13/06 Q1028
08:33 VATSIM:LEIB 160800Z 09004KT 040V150 9999 FEW034 20/14 Q1027 NOSIG
08:34 VOICE CATALONIAN
08:35 Parking Brakes off
08:43 Take-off
08:43 Take off Weight: 25598 Lbs
08:43 Wind: 259º @ 008 Knots Heading: 313º
08:43 POS N41º 43´ 38´´ E000º 32´ 09´´
08:43 Flaps:1 at 98 Knots
08:43 Flaps:0 at 99 Knots
08:43 Gear Up: 099 Knots
08:56 TOC
08:56 Fuel Weight: 4578 Lb
08:58 Wind:256º@008 Knots Heading: 106º Ground Speed: 168 Knots Altitude 12431 ft
09:13 Wind:256º@008 Knots Heading: 121º Ground Speed: 168 Knots Altitude 12332 ft
09:28 Wind:250º@006 Knots Heading: 176º Ground Speed: 161 Knots Altitude 12283 ft
09:35 TOD
09:35 Fuel Weight: 4143 Lb
09:43 Wind:223º@008 Knots Heading: 173º Ground Speed: 166 Knots Altitude 9396 ft
09:58 Wind:176º@007 Knots Heading: 228º Ground Speed: 160 Knots Altitude 6351 ft
10:13 Wind:077º@006 Knots Heading: 194º Ground Speed: 144 Knots Altitude 4005 ft
10:19 Flaps:1 at 121 Knots
10:27 Gear Down: 121 Knots
10:27 Gear Up: 121 Knots
10:27 Gear Down: 116 Knots
10:27 Gear Up: 114 Knots
10:28 Gear Down: 109 Knots
10:28 Wind:080º@006 Knots Heading: 089º Ground Speed: 104 Knots Altitude 1961 ft
10:28 Flaps:2 at 102 Knots
10:29 Flaps:3 at 95 Knots
10:32 Flaps:4 at 86 Knots
10:33 TouchDown:Rate -109 ft/min Speed: 75 Knots
10:33 Flaps:0 at 57 Knots
10:33 VATSIM:LEIB 161000Z 11007KT 060V190 9999 SCT034 21/13 Q1028 NOSIG
10:33 Land
10:33 Wind:080º@006 Knots
10:33 Heading: 062º
10:33 Flight Duration: 01:50
10:33 Landing Weight: 24444 Lbs
10:33 POS N38º 52´ 13´´ E001º 22´ 02´´
10:36 Parking brakes on
10:36 Block to Block Duration: 02:01
10:36 Final Fuel: 3626 Lbls
10:36 Spent Fuel: 1190 Lbls
10:36 Flight Length: 273 NM
10:36 TOD Land Length: 139 NM

Exportar CSV

Powered by Drupal - Modified by Danger4k